createdAt,value
2023-02-14T00:01:22.699Z,2.20
2023-02-14T00:03:49.812Z,4.68
2023-02-14T00:06:17.273Z,2.17
2023-02-14T00:08:45.142Z,4.20
2023-02-14T00:11:13.907Z,4.43
2023-02-14T00:14:01.298Z,2.72
2023-02-14T00:16:28.542Z,2.60
2023-02-14T00:19:04.660Z,4.10
2023-02-14T00:21:33.314Z,3.47
2023-02-14T00:24:03.475Z,3.65
2023-02-14T00:26:30.603Z,4.68
2023-02-14T00:28:59.300Z,3.95
2023-02-14T00:31:26.520Z,4.55
2023-02-14T00:33:57.517Z,1.80
2023-02-14T00:36:24.742Z,2.53
2023-02-14T00:38:52.337Z,3.55
2023-02-14T00:41:20.666Z,4.53
2023-02-14T00:43:53.168Z,1.60
2023-02-14T00:46:22.371Z,4.57
2023-02-14T00:48:50.008Z,1.52
2023-02-14T00:51:18.467Z,2.20
2023-02-14T00:53:47.278Z,4.57
2023-02-14T00:56:15.232Z,2.75
2023-02-14T00:58:47.058Z,1.73
2023-02-14T01:01:16.765Z,1.70
2023-02-14T01:03:44.858Z,2.28
2023-02-14T01:06:12.913Z,3.40
2023-02-14T01:08:40.255Z,1.42
2023-02-14T01:11:15.675Z,3.63
2023-02-14T01:13:44.079Z,2.83
2023-02-14T01:16:14.389Z,1.63
2023-02-14T01:18:42.766Z,1.77
2023-02-14T01:21:23.483Z,2.47
2023-02-14T01:23:53.693Z,1.30
2023-02-14T01:26:22.531Z,3.38
2023-02-14T01:28:50.015Z,3.00
2023-02-14T01:31:20.804Z,3.72
2023-02-14T01:33:50.129Z,4.47
2023-02-14T01:36:26.218Z,1.48
2023-02-14T01:39:02.694Z,1.77
2023-02-14T01:41:34.446Z,1.98
2023-02-14T01:44:22.046Z,2.75
2023-02-14T01:46:49.449Z,1.90
2023-02-14T01:49:20.809Z,2.13
2023-02-14T01:51:55.748Z,1.98
2023-02-14T01:54:35.905Z,1.88
2023-02-14T01:57:14.541Z,3.00
2023-02-14T02:00:01.420Z,1.48
2023-02-14T02:02:30.712Z,3.33
2023-02-14T02:05:11.693Z,2.00
2023-02-14T02:08:10.231Z,2.28
2023-02-14T02:10:41.490Z,1.90
2023-02-14T02:13:40.256Z,1.45
2023-02-14T02:16:33.649Z,1.98
2023-02-14T02:19:36.590Z,1.88
2023-02-14T02:22:58.056Z,1.92
2023-02-14T02:25:37.143Z,2.15
2023-02-14T02:28:14.326Z,3.33
2023-02-14T02:30:56.644Z,1.63
2023-02-14T02:33:36.851Z,3.40
2023-02-14T02:36:27.216Z,2.40
2023-02-14T02:42:05.436Z,3.63
2023-02-14T02:45:01.473Z,5.80
2023-02-14T02:48:08.240Z,2.63
2023-02-14T02:51:15.692Z,3.55
2023-02-14T02:54:02.063Z,4.15
2023-02-14T02:56:55.229Z,1.77
2023-02-14T02:59:48.629Z,5.78
2023-02-14T03:02:30.477Z,4.40
2023-02-14T03:08:03.559Z,2.45
2023-02-14T03:10:37.276Z,3.05
2023-02-14T03:13:41.013Z,4.18
2023-02-14T03:16:32.357Z,2.30
2023-02-14T03:19:33.963Z,1.25
2023-02-14T03:22:20.351Z,2.38
2023-02-14T03:25:18.630Z,1.98
2023-02-14T03:28:32.527Z,1.45
2023-02-14T03:31:05.922Z,2.45
2023-02-14T03:34:02.706Z,2.25
2023-02-14T03:36:46.714Z,1.60
2023-02-14T03:39:31.252Z,2.13
2023-02-14T03:42:33.722Z,3.63
2023-02-14T03:45:03.778Z,2.58
2023-02-14T03:47:44.521Z,6.43
2023-02-14T03:50:28.025Z,3.28
2023-02-14T03:53:13.365Z,1.95
2023-02-14T03:55:53.161Z,1.95
2023-02-14T03:58:51.077Z,2.65
2023-02-14T04:01:31.155Z,2.17
2023-02-14T04:04:05.502Z,2.03
2023-02-14T04:06:33.308Z,1.65
2023-02-14T04:11:35.671Z,1.80
2023-02-14T04:14:09.216Z,2.88
2023-02-14T04:16:56.662Z,4.00
2023-02-14T04:19:30.907Z,1.75
2023-02-14T04:21:58.427Z,1.63
2023-02-14T04:24:32.056Z,3.67
2023-02-14T04:27:23.079Z,2.22
2023-02-14T04:29:55.789Z,1.77
2023-02-14T04:32:35.066Z,2.97
2023-02-14T04:35:02.380Z,1.83
2023-02-14T04:37:35.230Z,3.78
2023-02-14T04:40:03.577Z,3.13
2023-02-14T04:42:31.171Z,2.55
2023-02-14T04:45:06.701Z,3.33
2023-02-14T04:47:35.148Z,2.00
2023-02-14T04:50:03.519Z,3.08
2023-02-14T04:52:30.933Z,3.17
2023-02-14T04:54:58.474Z,2.50
2023-02-14T04:57:25.756Z,3.25
2023-02-14T04:59:53.114Z,3.20
2023-02-14T05:02:25.777Z,3.17
2023-02-14T05:04:53.011Z,4.03
2023-02-14T05:07:24.480Z,1.95
2023-02-14T05:09:56.041Z,2.80
2023-02-14T05:12:27.978Z,2.53
2023-02-14T05:15:00.593Z,2.40
2023-02-14T05:17:33.692Z,1.98
2023-02-14T05:20:26.310Z,3.88
2023-02-14T05:22:58.995Z,3.40
2023-02-14T05:25:31.594Z,2.25
2023-02-14T05:28:03.398Z,2.45
2023-02-14T05:30:35.418Z,1.63
2023-02-14T05:33:05.819Z,1.98
2023-02-14T05:35:36.363Z,1.85
2023-02-14T05:38:03.667Z,1.73
2023-02-14T05:40:31.002Z,2.78
2023-02-14T05:42:58.109Z,2.50
2023-02-14T05:45:25.655Z,3.53
2023-02-14T05:47:52.844Z,3.35
2023-02-14T05:50:20.088Z,3.40
2023-02-14T05:52:48.096Z,3.00
2023-02-14T05:55:15.216Z,1.45
2023-02-14T05:57:42.726Z,3.30
2023-02-14T06:00:11.017Z,2.67
2023-02-14T06:02:41.113Z,2.50
2023-02-14T06:05:08.549Z,1.73
2023-02-14T06:07:35.695Z,2.67
2023-02-14T06:10:03.376Z,1.50
2023-02-14T06:12:30.457Z,2.53
2023-02-14T06:14:57.524Z,2.75
2023-02-14T06:17:24.598Z,1.58
2023-02-14T06:19:51.677Z,2.47
2023-02-14T06:22:18.807Z,1.40
2023-02-14T06:24:45.835Z,1.52
2023-02-14T06:27:12.969Z,1.73
2023-02-14T06:29:40.028Z,2.17
2023-02-14T06:32:07.375Z,2.78
2023-02-14T06:34:34.963Z,2.13
2023-02-14T06:37:02.195Z,1.30
2023-02-14T06:39:29.228Z,1.98
2023-02-14T06:41:56.360Z,2.17
2023-02-14T06:44:23.393Z,1.83
2023-02-14T06:46:50.537Z,2.13
2023-02-14T06:49:17.591Z,1.80
2023-02-14T06:51:44.765Z,1.58
2023-02-14T06:54:11.875Z,2.05
2023-02-14T06:56:39.028Z,2.53
2023-02-14T06:59:06.463Z,2.60
2023-02-14T07:01:33.718Z,2.28
2023-02-14T07:04:00.991Z,3.10
2023-02-14T07:06:28.120Z,4.22
2023-02-14T07:08:55.261Z,4.05
2023-02-14T07:11:23.610Z,1.52
2023-02-14T07:13:51.587Z,1.33
2023-02-14T07:16:18.790Z,2.40
2023-02-14T07:18:46.772Z,2.70
2023-02-14T07:21:13.895Z,1.95
2023-02-14T07:23:41.109Z,2.63
2023-02-14T07:26:08.464Z,2.63
2023-02-14T07:28:36.027Z,2.22
2023-02-14T07:31:04.219Z,1.55
2023-02-14T07:33:31.664Z,1.52
2023-02-14T07:35:58.858Z,2.83
2023-02-14T07:38:26.087Z,1.92
2023-02-14T07:40:54.024Z,2.78
2023-02-14T07:43:21.277Z,2.95
2023-02-14T07:45:48.875Z,3.72
2023-02-14T07:48:16.048Z,2.22
2023-02-14T07:50:43.488Z,1.15
2023-02-14T07:53:11.711Z,3.75
2023-02-14T07:55:40.568Z,1.77
2023-02-14T07:58:11.292Z,2.65
2023-02-14T08:00:38.327Z,2.30
2023-02-14T08:03:05.618Z,2.97
2023-02-14T08:05:32.897Z,2.17
2023-02-14T08:08:00.229Z,3.20
2023-02-14T08:10:27.621Z,4.72
2023-02-14T08:13:00.828Z,2.47
2023-02-14T08:15:51.057Z,2.45
2023-02-14T08:18:20.389Z,2.05
2023-02-14T08:20:51.607Z,1.98
2023-02-14T08:23:20.226Z,1.25
2023-02-14T08:25:52.150Z,2.80
2023-02-14T08:28:21.940Z,2.35
2023-02-14T08:30:49.732Z,1.85
2023-02-14T08:35:44.059Z,2.47
2023-02-14T08:38:11.432Z,2.60
2023-02-14T08:40:38.975Z,3.78
2023-02-14T08:43:07.240Z,3.35
2023-02-14T08:45:34.905Z,2.33
2023-02-14T08:48:07.016Z,2.50
2023-02-14T08:50:34.774Z,3.65
2023-02-14T08:53:04.537Z,2.20
2023-02-14T08:55:31.607Z,2.97
2023-02-14T08:58:00.529Z,4.43
2023-02-14T09:00:27.924Z,3.53
2023-02-14T09:02:55.173Z,2.78
2023-02-14T09:05:23.460Z,4.60
2023-02-14T09:07:50.910Z,3.25
2023-02-14T09:10:24.439Z,1.90
2023-02-14T09:12:51.792Z,2.63
2023-02-14T09:15:19.985Z,3.42
2023-02-14T09:17:47.608Z,5.18
2023-02-14T09:20:23.166Z,3.53
2023-02-14T09:22:52.626Z,2.45
2023-02-14T09:25:19.655Z,3.72
2023-02-14T09:27:46.753Z,3.70
2023-02-14T09:30:14.563Z,2.55
2023-02-14T09:32:43.672Z,1.95
2023-02-14T09:35:32.279Z,1.65
2023-02-14T09:38:19.847Z,1.23
2023-02-14T09:40:50.570Z,2.13
2023-02-14T09:43:30.988Z,3.17
2023-02-14T09:46:02.391Z,1.77
2023-02-14T09:48:45.011Z,1.38
2023-02-14T09:51:16.851Z,1.42
2023-02-14T09:54:02.312Z,2.58
2023-02-14T09:56:58.998Z,1.70
2023-02-14T09:59:48.703Z,2.67
2023-02-14T10:02:42.125Z,2.05
2023-02-14T10:05:13.277Z,2.08
2023-02-14T10:07:58.110Z,3.03
2023-02-14T10:10:46.510Z,4.22
2023-02-14T10:13:16.789Z,2.88
2023-02-14T10:15:58.875Z,3.10
2023-02-14T10:18:38.463Z,1.63
2023-02-14T10:21:13.188Z,3.47
2023-02-14T10:23:49.311Z,2.63
2023-02-14T10:26:23.687Z,2.47
2023-02-14T10:28:51.059Z,1.45
2023-02-14T10:31:18.440Z,3.95
2023-02-14T10:33:53.424Z,2.50
2023-02-14T10:36:43.610Z,2.90
2023-02-14T10:39:44.812Z,2.17
2023-02-14T10:42:25.681Z,2.05
2023-02-14T10:45:24.942Z,2.67
2023-02-14T10:48:01.193Z,3.05
2023-02-14T10:50:50.244Z,2.67
2023-02-14T10:53:30.314Z,3.03
2023-02-14T10:56:06.887Z,2.17
2023-02-14T10:58:38.755Z,3.13
2023-02-14T11:01:17.827Z,3.25
2023-02-14T11:04:08.517Z,2.97
2023-02-14T11:06:35.751Z,2.92
2023-02-14T11:09:03.532Z,3.03
2023-02-14T11:11:43.409Z,1.95
2023-02-14T11:16:54.990Z,2.65
2023-02-14T11:19:31.008Z,3.72
2023-02-14T11:22:00.085Z,2.67
2023-02-14T11:24:34.320Z,2.38
2023-02-14T11:27:12.778Z,2.88
2023-02-14T11:29:52.793Z,2.40
2023-02-14T11:32:23.219Z,3.17
2023-02-14T11:35:03.407Z,2.05
2023-02-14T11:37:39.641Z,2.30
2023-02-14T11:40:35.706Z,2.88
2023-02-14T11:43:15.827Z,3.17
2023-02-14T11:45:48.718Z,2.70
2023-02-14T11:48:22.337Z,1.92
2023-02-14T11:51:01.360Z,1.80
2023-02-14T11:53:38.436Z,2.80
2023-02-14T11:56:06.031Z,3.10
2023-02-14T11:58:36.151Z,2.90
2023-02-14T12:01:04.411Z,1.58
2023-02-14T12:03:43.892Z,2.40
2023-02-14T12:06:26.524Z,1.67
2023-02-14T12:09:25.354Z,3.28
2023-02-14T12:12:00.325Z,2.42
2023-02-14T12:14:37.423Z,3.08
2023-02-14T12:17:30.218Z,2.47
2023-02-14T12:20:12.156Z,3.40
2023-02-14T12:23:10.787Z,2.67
2023-02-14T12:26:09.416Z,1.38
2023-02-14T12:28:42.893Z,1.88
2023-02-14T12:31:12.155Z,2.92
2023-02-14T12:34:04.940Z,2.67
2023-02-14T12:36:37.904Z,2.08
2023-02-14T12:39:25.827Z,2.78
2023-02-14T12:42:25.101Z,3.33
2023-02-14T12:45:20.566Z,1.85
2023-02-14T12:48:17.961Z,2.45
2023-02-14T12:51:18.681Z,1.80
2023-02-14T12:54:13.911Z,1.65
2023-02-14T12:56:59.312Z,2.30
2023-02-14T12:59:31.978Z,3.13
2023-02-14T13:02:36.052Z,2.53
2023-02-14T13:05:21.737Z,2.50
2023-02-14T13:08:14.869Z,1.60
2023-02-14T13:10:52.034Z,2.25
2023-02-14T13:13:47.396Z,1.35
2023-02-14T13:16:39.620Z,3.45
2023-02-14T13:19:17.794Z,3.95
2023-02-14T13:21:45.405Z,2.60
2023-02-14T13:24:28.569Z,1.70
2023-02-14T13:27:00.506Z,2.03
2023-02-14T13:29:37.484Z,2.63
2023-02-14T13:32:07.155Z,2.97
2023-02-14T13:34:38.920Z,1.98
2023-02-14T13:37:13.610Z,3.15
2023-02-14T13:39:47.340Z,1.83
2023-02-14T13:42:50.747Z,2.78
2023-02-14T13:45:30.519Z,3.47
2023-02-14T13:48:10.259Z,1.58
2023-02-14T13:50:40.511Z,2.28
2023-02-14T13:53:29.346Z,1.65
2023-02-14T13:55:57.259Z,1.42
2023-02-14T14:00:56.280Z,1.75
2023-02-14T14:03:26.086Z,2.55
2023-02-14T14:06:08.318Z,1.45
2023-02-14T14:08:39.472Z,2.15
2023-02-14T14:11:27.411Z,1.85
2023-02-14T14:14:17.709Z,1.85
2023-02-14T14:16:56.880Z,2.03
2023-02-14T14:19:26.983Z,4.47
2023-02-14T14:22:14.714Z,2.17
2023-02-14T14:24:52.718Z,2.78
2023-02-14T14:27:27.459Z,2.50
2023-02-14T14:30:01.052Z,3.05
2023-02-14T14:32:42.328Z,2.10
2023-02-14T14:35:14.955Z,2.13
2023-02-14T14:37:56.842Z,1.85
2023-02-14T14:40:34.106Z,2.58
2023-02-14T14:43:31.107Z,3.05
2023-02-14T14:46:05.226Z,3.22
2023-02-14T14:48:41.870Z,4.03
2023-02-14T14:51:20.197Z,2.10
2023-02-14T14:54:10.334Z,0.95
2023-02-14T14:56:47.482Z,1.90
2023-02-14T14:59:27.695Z,3.03
2023-02-14T15:01:56.136Z,2.78
2023-02-14T15:04:35.396Z,1.60
2023-02-14T15:07:29.964Z,1.75
2023-02-14T15:09:59.337Z,2.95
2023-02-14T15:12:45.911Z,3.20
2023-02-14T15:15:17.781Z,3.17
2023-02-14T15:17:48.238Z,2.45
2023-02-14T15:20:23.316Z,2.70
2023-02-14T15:22:57.998Z,2.95
2023-02-14T15:25:36.593Z,2.28
2023-02-14T15:28:07.328Z,3.70
2023-02-14T15:30:53.385Z,3.80
2023-02-14T15:33:30.353Z,4.55
2023-02-14T15:36:15.097Z,2.85
2023-02-14T15:39:16.274Z,3.78
2023-02-14T15:44:28.812Z,2.95
2023-02-14T15:47:00.229Z,4.00
2023-02-14T15:49:44.057Z,3.80
2023-02-14T15:52:14.209Z,2.60
2023-02-14T15:54:49.679Z,2.75
2023-02-14T15:57:26.280Z,2.97
2023-02-14T15:59:56.225Z,3.45
2023-02-14T16:02:37.876Z,5.55
2023-02-14T16:05:28.155Z,3.05
2023-02-14T16:08:26.571Z,2.47
2023-02-14T16:11:22.533Z,1.88
2023-02-14T16:13:55.732Z,2.95
2023-02-14T16:16:50.026Z,2.72
2023-02-14T16:19:32.658Z,2.70
2023-02-14T16:22:03.632Z,3.97
2023-02-14T16:24:30.859Z,4.25
2023-02-14T16:26:58.668Z,4.88
2023-02-14T16:29:25.770Z,3.55
2023-02-14T16:32:17.811Z,2.50
2023-02-14T16:34:47.548Z,3.70
2023-02-14T16:37:23.158Z,3.92
2023-02-14T16:39:57.761Z,4.05
2023-02-14T16:42:25.353Z,4.25
2023-02-14T16:44:55.861Z,2.92
2023-02-14T16:47:23.360Z,2.58
2023-02-14T16:49:53.177Z,3.00
2023-02-14T16:52:26.628Z,3.85
2023-02-14T16:54:54.642Z,3.17
2023-02-14T16:57:32.589Z,4.20
2023-02-14T17:00:00.635Z,3.13
2023-02-14T17:02:28.757Z,3.45
2023-02-14T17:09:56.284Z,2.10
2023-02-14T17:12:29.671Z,3.47
2023-02-14T17:15:01.524Z,3.42
2023-02-14T17:17:30.113Z,2.17
2023-02-14T17:19:58.986Z,3.35
2023-02-14T17:22:26.215Z,3.70
2023-02-14T17:24:54.343Z,4.57
2023-02-14T17:27:22.796Z,3.80
2023-02-14T17:29:52.129Z,3.53
2023-02-14T17:32:19.582Z,4.65
2023-02-14T17:34:46.865Z,3.05
2023-02-14T17:37:16.062Z,3.22
2023-02-14T17:39:43.656Z,5.60
2023-02-14T17:42:12.168Z,2.95
2023-02-14T17:44:39.478Z,4.55
2023-02-14T17:47:08.563Z,5.78
2023-02-14T17:49:35.729Z,4.40
2023-02-14T17:52:02.858Z,4.50
2023-02-14T17:54:30.120Z,3.85
2023-02-14T17:57:00.559Z,6.50
2023-02-14T17:59:27.657Z,3.20
2023-02-14T18:01:54.857Z,4.05
2023-02-14T18:04:22.899Z,6.32
2023-02-14T18:06:50.193Z,4.07
2023-02-14T18:09:19.333Z,4.68
2023-02-14T18:11:53.644Z,5.25
2023-02-14T18:14:21.503Z,4.70
2023-02-14T18:19:20.702Z,4.22
2023-02-14T18:21:47.898Z,2.97
2023-02-14T18:24:18.065Z,6.40
2023-02-14T18:26:46.396Z,4.95
2023-02-14T18:29:13.858Z,4.47
2023-02-14T18:31:43.463Z,5.80
2023-02-14T18:34:15.594Z,6.65
2023-02-14T18:36:43.325Z,5.78
2023-02-14T18:39:15.107Z,6.97
2023-02-14T18:41:42.565Z,5.03
2023-02-14T18:44:11.577Z,3.88
2023-02-14T18:46:45.245Z,4.57
2023-02-14T18:49:13.403Z,3.75
2023-02-14T18:51:43.733Z,5.35
2023-02-14T18:54:13.829Z,4.88
2023-02-14T18:56:41.935Z,6.35
2023-02-14T18:59:11.318Z,6.07
2023-02-14T19:01:44.268Z,5.18
2023-02-14T19:04:13.107Z,5.22
2023-02-14T19:06:44.460Z,3.55
2023-02-14T19:09:21.161Z,5.57
2023-02-14T19:12:00.057Z,5.25
2023-02-14T19:14:27.880Z,5.80
2023-02-14T19:16:56.867Z,5.43
2023-02-14T19:19:30.570Z,5.00
2023-02-14T19:22:02.359Z,3.83
2023-02-14T19:24:32.523Z,3.90
2023-02-14T19:27:00.842Z,2.45
2023-02-14T19:29:28.333Z,6.18
2023-02-14T19:31:55.956Z,5.75
2023-02-14T19:37:04.244Z,8.45
2023-02-14T19:39:34.943Z,7.85
2023-02-14T19:42:04.025Z,5.63
2023-02-14T19:44:32.622Z,7.05
2023-02-14T19:47:02.778Z,4.60
2023-02-14T19:49:32.110Z,5.72
2023-02-14T19:54:40.787Z,3.72
2023-02-14T19:57:13.051Z,4.85
2023-02-14T19:59:40.460Z,3.95
2023-02-14T20:02:14.255Z,6.55
2023-02-14T20:04:43.896Z,4.40
2023-02-14T20:07:13.937Z,4.00
2023-02-14T20:09:42.300Z,5.25
2023-02-14T20:12:09.961Z,6.65
2023-02-14T20:14:50.859Z,5.43
2023-02-14T20:17:19.538Z,5.55
2023-02-14T20:19:46.702Z,4.70
2023-02-14T20:22:14.299Z,4.47
2023-02-14T20:24:44.324Z,7.55
2023-02-14T20:27:12.186Z,5.72
2023-02-14T20:29:43.058Z,6.13
2023-02-14T20:32:12.557Z,6.60
2023-02-14T20:34:40.221Z,5.07
2023-02-14T20:37:07.412Z,7.20
2023-02-14T20:39:38.408Z,6.22
2023-02-14T20:42:06.034Z,5.20
2023-02-14T20:44:33.820Z,5.43
2023-02-14T20:47:02.240Z,7.85
2023-02-14T20:49:31.178Z,5.50
2023-02-14T20:52:02.739Z,5.10
2023-02-14T20:54:33.064Z,7.25
2023-02-14T20:57:00.169Z,4.85
2023-02-14T20:59:30.670Z,6.68
2023-02-14T21:01:59.246Z,5.43
2023-02-14T21:04:27.274Z,8.20
2023-02-14T21:06:56.984Z,5.95
2023-02-14T21:09:24.162Z,5.40
2023-02-14T21:11:54.229Z,7.82
2023-02-14T21:14:21.625Z,9.60
2023-02-14T21:16:49.059Z,10.18
2023-02-14T21:19:17.820Z,8.15
2023-02-14T21:21:45.104Z,6.85
2023-02-14T21:24:19.631Z,8.13
2023-02-14T21:26:46.687Z,7.65
2023-02-14T21:29:14.527Z,6.13
2023-02-14T21:34:11.033Z,5.22
2023-02-14T21:36:38.397Z,3.72
2023-02-14T21:39:06.844Z,6.00
2023-02-14T21:41:36.014Z,8.32
2023-02-14T21:44:04.692Z,7.03
2023-02-14T21:46:36.073Z,8.75
2023-02-14T21:49:23.958Z,4.80
2023-02-14T21:51:53.855Z,7.32
2023-02-14T21:54:22.591Z,6.80
2023-02-14T21:56:50.007Z,7.75
2023-02-14T21:59:17.558Z,5.15
2023-02-14T22:01:44.971Z,5.32
2023-02-14T22:04:13.109Z,6.07
2023-02-14T22:06:41.859Z,4.30
2023-02-14T22:09:12.306Z,7.50
2023-02-14T22:11:39.685Z,5.38
2023-02-14T22:14:06.913Z,8.98
2023-02-14T22:16:36.777Z,6.38
2023-02-14T22:19:08.482Z,5.57
2023-02-14T22:21:35.650Z,7.65
2023-02-14T22:24:02.990Z,7.00
2023-02-14T22:26:34.665Z,5.78
2023-02-14T22:29:02.721Z,5.00
2023-02-14T22:31:34.566Z,6.15
2023-02-14T22:34:02.241Z,6.40
2023-02-14T22:36:32.649Z,6.93
2023-02-14T22:39:00.120Z,5.15
2023-02-14T22:41:30.623Z,6.85
2023-02-14T22:43:58.054Z,6.75
2023-02-14T22:46:45.553Z,4.85
2023-02-14T22:49:13.253Z,4.95
2023-02-14T22:54:13.776Z,5.93
2023-02-14T22:56:43.666Z,3.72
2023-02-14T22:59:25.107Z,4.15
2023-02-14T23:01:55.801Z,4.03
2023-02-14T23:04:25.002Z,8.60
2023-02-14T23:06:53.228Z,7.05
2023-02-14T23:09:25.605Z,8.10
2023-02-14T23:11:54.400Z,6.85
2023-02-14T23:14:40.161Z,7.72
2023-02-14T23:17:29.142Z,8.88
2023-02-14T23:20:15.350Z,7.63
2023-02-14T23:22:42.502Z,6.53
2023-02-14T23:25:12.142Z,7.63
2023-02-14T23:27:45.839Z,6.30
2023-02-14T23:30:18.266Z,6.25
2023-02-14T23:32:48.509Z,9.32
2023-02-14T23:35:15.856Z,5.60
2023-02-14T23:37:43.025Z,4.68
2023-02-14T23:40:10.736Z,2.47
2023-02-14T23:45:27.114Z,2.95
2023-02-14T23:47:54.650Z,4.50
2023-02-14T23:50:22.176Z,5.93
2023-02-14T23:52:49.652Z,6.88
2023-02-14T23:55:17.015Z,6.32
2023-02-14T23:57:44.299Z,4.85
